Weather observations for the past three days for
Havre, Havre City-County Airport
Imperial (Metric)
Date Time (mdt) Wind (mph) Vis. (mi.) Weather Sky Cond. Temperature (ºF) Relative Humidity Wind Chill (°F) Heat Index (°F) Pressure Precipitation (in)
Air Dwpt 6 hour altimeter (in) sea level (mb) 1 hr 3 hr 6 hr
Max. Min.
02 15:53 Calm 10.00 Mostly Cloudy BKN075 68 34 28% 30.03 1017.1
02 14:53 N 10 10.00 Mostly Cloudy FEW075 BKN090 64.9 34 32% 30.05 1018.0
02 13:53 W 6 10.00 Overcast OVC085 66 35.1 32% 30.07 1018.5
02 12:53 NW 6 10.00 Overcast OVC090 64.9 36 34% 30.08 1018.8
02 11:53 N 5 10.00 Mostly Cloudy BKN100 64 34 66 41 33% 30.08 1018.8
02 10:53 N 8 G 18 10.00 Mostly Cloudy BKN120 64.9 36 34% 30.09 1018.7
02 09:53 Vrbl 3 10.00 Fair CLR 61 34 36% 30.09 1018.9
02 08:53 NW 3 10.00 Fair CLR 55.9 36 47% 30.08 1018.7
02 07:53 Calm 10.00 Partly Cloudy SCT120 48.9 34 56% 30.08 1018.1
02 06:53 NE 3 10.00 Fair CLR 42.1 30 62% 30.06 1017.7
02 05:53 NE 5 10.00 Fair CLR 41 28.9 48 36 62% 38 30.04 1017.0
02 04:53 E 6 10.00 Fair CLR 41 28.9 62% 38 30.03 1016.4
02 03:53 E 8 10.00 Fair CLR 41 30 65% 36 30 1015.6
02 02:53 SE 7 10.00 Fair CLR 39 30.9 73% 35 29.97 1014.8
02 01:53 W 5 10.00 Fair CLR 37 28 70% 34 29.95 1014.3
02 00:53 W 6 10.00 Fair CLR 39.9 30.9 70% 36 29.95 1014.2
01 23:53 SE 3 10.00 Fair CLR 48 28.9 75.9 43 48% 29.95 1013.6
01 22:53 Calm 10.00 Fair CLR 51.1 28 41% 29.95 1013.8
01 21:53 SE 5 10.00 Fair CLR 50 28.9 44% 49 29.94 1013.9
01 20:53 SE 3 10.00 Fair CLR 55 27 34% 29.92 1013.3
01 19:53 N 7 10.00 Fair CLR 68 26.1 21% 29.92 1013.0
01 18:53 NW 10 10.00 Fair CLR 75 27 17% 76 29.92 1013.5
01 17:53 W 15 G 22 10.00 Fair CLR 75.9 23 77 68 14% 76 29.93 1013.7
01 16:53 W 16 G 22 10.00 Fair CLR 77 21.9 13% 76 29.94 1013.8
01 15:53 SW 14 G 21 10.00 Fair CLR 75 23 14% 75 29.96 1014.4
01 14:53 W 13 G 21 10.00 Fair CLR 73.9 23 15% 29.98 1015.0
01 13:53 SW 14 G 26 10.00 Fair CLR 73.9 28 18% 29.99 1015.5
01 12:53 SW 9 10.00 Fair CLR 72 28.9 20% 30.01 1016.0
01 11:53 W 10 10.00 Fair CLR 69.1 32 69.1 27 25% 30.03 1016.7
01 10:53 SW 15 G 21 10.00 Fair CLR 64.9 30 27% 30.05 1017.6
01 09:53 SW 16 10.00 Fair CLR 59 28.9 32% 30.05 1018.0
01 08:53 SW 17 10.00 Fair CLR 54 30 40% 30.06 1018.1
01 07:53 SW 7 10.00 Fair CLR 43 30 60% 39 30.07 1018.5
01 06:53 SW 7 10.00 Fair CLR 30.9 27 85% 25 30.06 1018.6
01 05:53 W 5 10.00 Fair CLR 28 24.1 50 28 85% 24 30.06 1018.6
01 04:53 SW 8 10.00 Fair CLR 34 25 70% 28 30.05 1018.2
01 03:53 SW 7 10.00 Fair CLR 37 25 62% 32 30.04 1017.8
01 02:53 S 3 10.00 Fair CLR 39.9 26.1 58% 30.05 1017.9
01 01:53 S 5 10.00 Fair CLR 39.9 25 55% 37 30.05 1017.8
01 00:53 E 8 10.00 Fair CLR 43 25 49% 39 30.05 1017.9
30 23:53 E 10 10.00 Fair CLR 48 26.1 68 45 42% 44 30.05 1017.9
30 22:53 E 6 10.00 Fair CLR 45 32 61% 42 30.05 1018.1
30 21:53 SE 3 10.00 Fair CLR 46.9 27 46% 30.05 1018.3
30 20:53 SW 5 10.00 Fair CLR 55 24.1 30% 30.04 1017.9
30 19:53 N 3 10.00 Fair CLR 63 23 22% 30.04 1018.0
30 18:53 NW 9 10.00 Fair CLR 66.9 23 19% 30.04 1018.3
30 17:53 W 8 10.00 Fair CLR 68 23 69.1 60.1 18% 30.05 1018.8
30 16:53 NW 6 10.00 Fair CLR 66.9 21.9 18% 30.07 1019.4
30 15:53 NW 12 G 23 10.00 Fair CLR 66.9 23 19% 30.08 1019.7
30 14:53 Vrbl 5 G 22 10.00 Fair CLR 64.9 23 20% 30.11 1020.4
30 13:53 NW 16 G 24 10.00 Fair CLR 64 23 21% 30.13 1021.2
30 12:53 Vrbl 5 10.00 Fair CLR 62.1 23 22% 30.15 1022.1
30 11:53 N 5 10.00 Fair CLR 60.1 21 61 21 22% 30.17 1022.7
30 10:53 W 5 10.00 Fair CLR 57.9 24.1 27% 30.19 1023.7
30 09:53 W 7 10.00 Fair CLR 51.1 26.1 38% 30.21 1023.8
30 08:53 W 8 10.00 Fair CLR 43 25 49% 39 30.22 1024.3
30 07:53 W 5 10.00 Fair CLR 34 25 70% 30 30.22 1024.4
30 06:53 SW 7 10.00 Fair CLR 25 21 85% 18 30.21 1024.6
30 05:53 W 5 10.00 Fair CLR 21.9 19 36 21.9 89% 16 30.2 1024.4
30 04:53 W 9 10.00 Fair CLR 21.9 19 89% 13 30.2 1024.4
30 03:53 SW 5 10.00 Fair CLR 24.1 19.9 84% 19 30.2 1024.4
30 02:53 SW 3 10.00 Fair CLR 30 21.9 72% 30.21 1024.2
30 01:53 SW 3 10.00 Fair CLR 28 21.9 78% 30.2 1024.2
30 00:53 SW 8 10.00 Fair CLR 30 23 75% 23 30.19 1023.9
29 23:53 Calm 10.00 Fair CLR 33.1 21.9 61 32 64% 30.18 1023.6
29 22:53 S 3 10.00 Fair CLR 32 21 64% 30.19 1023.7
29 21:53 W 3 10.00 A Few Clouds FEW090 44.1 21 40% 30.18 1023.3
29 20:53 N 7 10.00 Fair CLR 50 21 32% 48 30.16 1022.8
29 19:53 N 9 10.00 Mostly Cloudy BKN095 57 21.9 26% 30.15 1022.4
29 18:53 N 15 G 21 10.00 Partly Cloudy SCT090 59 21.9 24% 30.14 1022.4
29 17:53 N 10 G 25 10.00 Mostly Cloudy BKN095 61 21 61 52 21% 30.14 1022.3
29 16:53 NW 16 G 28 10.00 Partly Cloudy SCT095 61 19 20% 30.14 1022.0
Date Time (mdt) Wind (mph) Vis. (mi.) Weather Sky Cond. Air Dwpt Max. Min. Relative Humidity Wind Chill (°F) Heat Index (°F) altimeter (in) sea level (mb) 1 hr 3 hr 6 hr
6 hour
Temperature (ºF) Pressure Precipitation (in)